Time;durP1;ratioP1;P1;durP2;ratioP2;P2;SDS_P1;SDS_P2;PMS_P1;PMS_P2;Temp;Humidity;BMP_temperature;BMP_pressure;BME280_temperature;BME280_humidity;BME280_pressure;Samples;Min_cycle;Max_cycle;Signal;HPM_P1;HPM_P2
2023/01/21 00:01:13;;;;;;;305.15;288.98;;;4.10;99.90;;;;;;5051942;28;20412;-59
2023/01/21 00:03:39;;;;;;;313.77;297.38;;;4.10;99.90;;;;;;5054635;28;20416;-60
2023/01/21 00:06:05;;;;;;;308.60;292.30;;;4.10;99.90;;;;;;5057058;28;20689;-60
2023/01/21 00:08:31;;;;;;;299.75;283.92;;;4.10;99.90;;;;;;5058018;28;20413;-60
2023/01/21 00:11:04;;;;;;;307.52;291.30;;;4.10;99.90;;;;;;5056174;28;20743;-60
2023/01/21 00:13:29;;;;;;;283.70;268.45;;;4.00;99.90;;;;;;5054374;28;20389;-55
2023/01/21 00:15:55;;;;;;;292.83;277.60;;;4.00;99.90;;;;;;5052739;28;20478;-60
2023/01/21 00:18:20;;;;;;;297.63;281.85;;;4.00;99.90;;;;;;5052462;28;20931;-59
2023/01/21 00:20:46;;;;;;;294.37;278.87;;;4.00;99.90;;;;;;5051684;28;20390;-60
2023/01/21 00:23:11;;;;;;;287.50;272.23;;;3.90;99.90;;;;;;5052773;28;20397;-60
2023/01/21 00:25:37;;;;;;;286.80;271.83;;;3.90;99.90;;;;;;5053265;28;20820;-60
2023/01/21 00:28:02;;;;;;;284.63;269.60;;;3.90;99.90;;;;;;5053933;28;20401;-60
2023/01/21 00:30:29;;;;;;;288.57;273.37;;;3.90;99.90;;;;;;5054670;28;20494;-60
2023/01/21 00:32:54;;;;;;;274.23;259.65;;;3.80;99.90;;;;;;5054166;28;20400;-59
2023/01/21 00:35:20;;;;;;;290.50;275.00;;;3.80;99.90;;;;;;5054859;28;20393;-59
2023/01/21 00:37:45;;;;;;;273.90;259.37;;;3.80;99.90;;;;;;5056195;28;20677;-60
2023/01/21 00:40:11;;;;;;;274.17;259.55;;;3.70;99.90;;;;;;5055140;28;20440;-59
2023/01/21 00:42:37;;;;;;;234.25;221.73;;;3.60;99.90;;;;;;5057112;28;20413;-59
2023/01/21 00:45:03;;;;;;;202.43;191.38;;;3.60;99.90;;;;;;5058694;28;20414;-61
2023/01/21 00:47:29;;;;;;;183.07;172.77;;;3.60;99.90;;;;;;5058489;28;20393;-60
2023/01/21 00:49:54;;;;;;;154.75;145.73;;;3.50;99.90;;;;;;5055521;28;20394;-59
2023/01/21 00:52:20;;;;;;;194.20;183.33;;;3.60;99.90;;;;;;5055955;28;20636;-60
2023/01/21 00:54:45;;;;;;;197.73;187.00;;;3.60;99.90;;;;;;5051632;28;20389;-59
2023/01/21 00:57:12;;;;;;;208.25;197.25;;;3.60;99.90;;;;;;5050077;28;20421;-60
2023/01/21 00:59:38;;;;;;;204.75;193.57;;;3.70;99.90;;;;;;5049383;28;20386;-60
2023/01/21 01:02:03;;;;;;;205.02;193.55;;;3.70;99.90;;;;;;5049718;28;20381;-60
2023/01/21 01:04:29;;;;;;;199.73;188.87;;;3.70;99.90;;;;;;5048369;28;20398;-60
2023/01/21 01:06:54;;;;;;;223.73;211.57;;;3.70;99.90;;;;;;5047522;28;20488;-60
2023/01/21 01:09:20;;;;;;;216.32;204.63;;;3.80;99.90;;;;;;5047282;28;20393;-60
2023/01/21 01:11:45;;;;;;;217.97;206.10;;;3.80;99.90;;;;;;5047269;28;20397;-59
2023/01/21 01:14:11;;;;;;;233.53;221.13;;;3.80;99.90;;;;;;5048504;28;20385;-59
2023/01/21 01:16:36;;;;;;;231.75;219.40;;;3.80;99.90;;;;;;5049092;28;20401;-60
2023/01/21 01:19:02;;;;;;;239.00;226.23;;;3.80;99.90;;;;;;5048651;28;20713;-60
2023/01/21 01:21:28;;;;;;;222.03;209.87;;;3.80;99.90;;;;;;5048633;28;20378;-60
2023/01/21 01:23:54;;;;;;;240.82;228.07;;;3.80;99.90;;;;;;5047044;28;20410;-60
2023/01/21 01:26:21;;;;;;;234.15;221.75;;;3.80;99.90;;;;;;5045516;28;20377;-59
2023/01/21 01:28:47;;;;;;;228.35;216.23;;;3.80;99.90;;;;;;5046239;28;20396;-60
2023/01/21 01:31:15;;;;;;;234.93;222.35;;;3.80;99.90;;;;;;5048014;28;20615;-59
2023/01/21 01:33:40;;;;;;;250.40;237.38;;;3.80;99.90;;;;;;5049258;28;20462;-60
2023/01/21 01:36:11;;;;;;;251.98;238.55;;;3.80;99.90;;;;;;5051411;28;20381;-60
2023/01/21 01:38:37;;;;;;;254.02;240.60;;;3.70;99.90;;;;;;5051369;28;20408;-59
2023/01/21 01:41:03;;;;;;;256.75;243.48;;;3.70;99.90;;;;;;5052201;28;20381;-58
2023/01/21 01:43:47;;;;;;;251.38;238.25;;;3.70;99.90;;;;;;5049981;28;20412;-60
2023/01/21 01:46:13;;;;;;;238.77;226.27;;;3.80;99.90;;;;;;5049508;28;20480;-60
2023/01/21 01:48:41;;;;;;;245.10;231.90;;;3.70;99.90;;;;;;5050195;28;20534;-59
2023/01/21 01:51:08;;;;;;;248.87;235.83;;;3.70;99.90;;;;;;5050362;28;20381;-60
2023/01/21 01:53:35;;;;;;;230.88;218.55;;;3.70;99.90;;;;;;5050202;28;20381;-59
2023/01/21 01:56:01;;;;;;;261.83;248.02;;;3.70;99.90;;;;;;5050670;28;20745;-59
2023/01/21 01:58:29;;;;;;;248.03;234.93;;;3.70;99.90;;;;;;5051849;28;20505;-58
2023/01/21 02:00:54;;;;;;;253.10;239.75;;;3.70;99.90;;;;;;5049253;28;20389;-60
2023/01/21 02:06:05;;;;;;;230.10;217.93;;;3.70;99.90;;;;;;5048632;28;20812;-60
2023/01/21 02:08:33;;;;;;;237.27;224.60;;;3.70;99.90;;;;;;5047695;28;20393;-59
2023/01/21 02:10:59;;;;;;;208.57;197.32;;;3.80;99.90;;;;;;5049259;28;20520;-59
2023/01/21 02:13:28;;;;;;;204.70;193.85;;;3.70;99.90;;;;;;5048595;28;20515;-59
2023/01/21 02:16:09;;;;;;;212.52;201.18;;;3.80;99.90;;;;;;5046708;28;20396;-60
2023/01/21 02:18:47;;;;;;;220.93;209.43;;;3.80;99.90;;;;;;5050298;28;20409;-60
2023/01/21 02:21:25;;;;;;;217.93;206.38;;;3.80;99.90;;;;;;5049253;28;20396;-60
2023/01/21 02:24:02;;;;;;;211.05;199.95;;;3.70;99.90;;;;;;5048659;28;20401;-59
2023/01/21 02:26:50;;;;;;;197.70;187.05;;;3.70;99.90;;;;;;5048966;28;20381;-60
2023/01/21 02:29:45;;;;;;;206.23;195.05;;;3.70;99.90;;;;;;5050484;28;20412;-60
2023/01/21 02:32:22;;;;;;;200.00;189.15;;;3.80;99.90;;;;;;5052541;28;20824;-56
2023/01/21 02:35:05;;;;;;;203.80;192.95;;;3.80;99.90;;;;;;5050945;28;20484;-60
2023/01/21 02:37:58;;;;;;;200.37;189.77;;;3.80;99.90;;;;;;5051898;28;20511;-59
2023/01/21 02:40:43;;;;;;;204.55;193.65;;;3.80;99.90;;;;;;5050762;28;20401;-57
2023/01/21 02:43:18;;;;;;;194.98;184.25;;;3.80;99.90;;;;;;5050258;28;20425;-59
2023/01/21 02:45:58;;;;;;;201.48;190.82;;;3.90;99.90;;;;;;5051348;28;20665;-57
2023/01/21 02:48:42;;;;;;;221.68;209.82;;;3.90;99.90;;;;;;5050070;28;20393;-59
2023/01/21 02:51:11;;;;;;;204.07;193.00;;;3.80;99.90;;;;;;5050226;28;20476;-60
2023/01/21 02:53:37;;;;;;;204.25;193.05;;;3.80;99.90;;;;;;5051318;28;20389;-60
2023/01/21 02:56:14;;;;;;;198.13;187.40;;;3.70;99.90;;;;;;5051544;28;20447;-60
2023/01/21 02:58:48;;;;;;;183.20;173.02;;;3.80;99.90;;;;;;5052766;28;20492;-59
2023/01/21 03:01:47;;;;;;;202.50;191.65;;;3.80;99.90;;;;;;5052195;28;20724;-59
2023/01/21 03:04:47;;;;;;;193.15;182.20;;;3.70;99.90;;;;;;5050856;28;20389;-60
2023/01/21 03:07:34;;;;;;;189.82;179.43;;;3.70;99.90;;;;;;5051438;28;20390;-60
2023/01/21 03:10:16;;;;;;;181.48;171.68;;;3.70;99.90;;;;;;5053183;28;20463;-60
2023/01/21 03:13:07;;;;;;;177.05;167.60;;;3.80;99.90;;;;;;5052833;28;20389;-59
2023/01/21 03:18:32;;;;;;;206.90;195.80;;;3.70;99.90;;;;;;5052936;28;20425;-61
2023/01/21 03:21:12;;;;;;;186.40;176.25;;;3.70;99.90;;;;;;5053811;28;20386;-59
2023/01/21 03:23:44;;;;;;;198.48;187.85;;;3.70;99.90;;;;;;5053195;28;20378;-57
2023/01/21 03:26:14;;;;;;;193.45;183.13;;;3.70;99.90;;;;;;5053125;28;20472;-59
2023/01/21 03:28:45;;;;;;;204.05;192.98;;;3.70;99.90;;;;;;5052689;28;20649;-59
2023/01/21 03:31:22;;;;;;;198.38;187.73;;;3.70;99.90;;;;;;5051714;28;20496;-60
2023/01/21 03:33:51;;;;;;;207.02;196.02;;;3.70;99.90;;;;;;5036520;28;20503;-58
2023/01/21 03:36:43;;;;;;;219.32;207.45;;;3.70;99.90;;;;;;5052278;28;20671;-59
2023/01/21 03:39:21;;;;;;;212.18;200.80;;;3.70;99.90;;;;;;5051451;28;20443;-59
2023/01/21 03:41:47;;;;;;;223.63;211.73;;;3.70;99.90;;;;;;5050564;28;20420;-59
2023/01/21 03:44:12;;;;;;;205.30;194.38;;;3.80;99.90;;;;;;5052235;28;20396;-59
2023/01/21 03:47:19;;;;;;;186.50;176.30;;;3.80;99.90;;;;;;5052441;28;20709;-58
2023/01/21 03:49:55;;;;;;;179.05;169.15;;;3.80;99.90;;;;;;5051775;28;20488;-58
2023/01/21 03:52:23;;;;;;;189.68;179.32;;;3.80;99.90;;;;;;5052058;28;20384;-59
2023/01/21 03:54:48;;;;;;;196.05;185.50;;;3.80;99.90;;;;;;5051867;28;20417;-59
2023/01/21 03:57:14;;;;;;;204.30;193.18;;;3.80;99.90;;;;;;5051533;28;20448;-59
2023/01/21 03:59:40;;;;;;;203.60;192.77;;;3.70;99.90;;;;;;5051582;28;20389;-58
2023/01/21 04:02:05;;;;;;;242.32;229.43;;;3.70;99.90;;;;;;5051739;28;20406;-58
2023/01/21 04:04:31;;;;;;;229.87;217.70;;;3.60;99.90;;;;;;5051446;28;20391;-57
2023/01/21 04:06:56;;;;;;;237.13;224.43;;;3.60;99.90;;;;;;5051526;28;20411;-57
2023/01/21 04:09:22;;;;;;;229.63;217.23;;;3.60;99.90;;;;;;5051828;28;20709;-59
2023/01/21 04:11:47;;;;;;;205.15;193.95;;;3.60;99.90;;;;;;5051434;28;20385;-59
2023/01/21 04:14:13;;;;;;;213.43;201.97;;;3.70;99.90;;;;;;5051233;28;20389;-58
2023/01/21 04:16:39;;;;;;;214.85;203.35;;;3.60;99.90;;;;;;5050879;28;20438;-58
2023/01/21 04:19:04;;;;;;;278.70;263.98;;;3.70;99.90;;;;;;5051134;28;20389;-59
2023/01/21 04:21:30;;;;;;;267.75;253.43;;;3.70;99.90;;;;;;5052475;28;20385;-59
2023/01/21 04:23:55;;;;;;;294.27;278.23;;;3.70;99.90;;;;;;5054355;28;20591;-59
2023/01/21 04:26:21;;;;;;;314.93;298.03;;;3.70;99.90;;;;;;5053439;28;20409;-59
2023/01/21 04:28:46;;;;;;;303.08;287.15;;;3.70;99.90;;;;;;5053803;28;20396;-60
2023/01/21 04:31:12;;;;;;;318.27;301.37;;;3.70;99.90;;;;;;5054265;28;20874;-59
2023/01/21 04:33:37;;;;;;;270.50;256.30;;;3.70;99.90;;;;;;5052288;28;20401;-59
2023/01/21 04:36:03;;;;;;;165.95;156.65;;;3.70;99.90;;;;;;5051531;28;20399;-57
2023/01/21 04:38:29;;;;;;;154.35;145.27;;;3.70;99.90;;;;;;5050932;28;20586;-59
2023/01/21 04:40:54;;;;;;;154.75;146.02;;;3.80;99.90;;;;;;5051867;28;20386;-59
2023/01/21 04:43:20;;;;;;;152.33;143.43;;;3.80;99.90;;;;;;5051553;28;20622;-58
2023/01/21 04:45:46;;;;;;;148.30;139.57;;;3.70;99.90;;;;;;5050202;28;20397;-58
2023/01/21 04:48:12;;;;;;;162.93;153.48;;;3.70;99.90;;;;;;5053458;28;20385;-59
2023/01/21 04:50:37;;;;;;;141.32;133.02;;;3.70;99.90;;;;;;5052447;28;20393;-59
2023/01/21 04:53:03;;;;;;;141.07;132.65;;;3.70;99.90;;;;;;5051484;28;20711;-59
2023/01/21 04:58:50;;;;;;;150.98;142.05;;;3.70;99.90;;;;;;5053721;28;20885;-57
2023/01/21 05:01:16;;;;;;;150.67;141.80;;;3.70;99.90;;;;;;5050535;28;20398;-59
2023/01/21 05:03:42;;;;;;;146.87;138.10;;;3.70;99.90;;;;;;5049445;28;20393;-59
2023/01/21 05:06:07;;;;;;;170.40;160.50;;;3.70;99.90;;;;;;5052812;28;20389;-61
2023/01/21 05:08:33;;;;;;;186.15;175.43;;;3.70;99.90;;;;;;5052958;28;20517;-59
2023/01/21 05:10:58;;;;;;;164.07;154.03;;;3.70;99.90;;;;;;5052530;28;20433;-60
2023/01/21 05:13:24;;;;;;;160.03;150.30;;;3.60;99.90;;;;;;5052462;28;20390;-60
2023/01/21 05:15:49;;;;;;;148.37;139.20;;;3.60;99.90;;;;;;5050204;28;20475;-59
2023/01/21 05:18:15;;;;;;;145.07;136.45;;;3.60;99.90;;;;;;5050841;28;20405;-59
2023/01/21 05:20:40;;;;;;;145.80;136.90;;;3.60;99.90;;;;;;5050963;28;20393;-59
2023/01/21 05:23:05;;;;;;;147.40;138.57;;;3.60;99.90;;;;;;5051055;28;20820;-59
2023/01/21 05:25:31;;;;;;;150.70;141.70;;;3.60;99.90;;;;;;5051134;28;20442;-59
2023/01/21 05:27:56;;;;;;;171.17;160.97;;;3.60;99.90;;;;;;5048425;28;20390;-57
2023/01/21 05:30:22;;;;;;;157.30;147.95;;;3.60;99.90;;;;;;5050716;28;20412;-58
2023/01/21 05:32:52;;;;;;;165.25;155.48;;;3.60;99.90;;;;;;5051206;28;20449;-58
2023/01/21 05:35:22;;;;;;;156.30;146.90;;;3.50;99.90;;;;;;5051734;28;20461;-57
2023/01/21 05:37:48;;;;;;;148.10;139.30;;;3.50;99.90;;;;;;5050814;28;20498;-59
2023/01/21 05:40:15;;;;;;;156.90;147.70;;;3.60;99.90;;;;;;5051032;28;20444;-59
2023/01/21 05:42:42;;;;;;;168.52;158.55;;;3.50;99.90;;;;;;5052857;28;20739;-58
2023/01/21 05:45:09;;;;;;;157.45;148.18;;;3.50;99.90;;;;;;5052833;28;20405;-60
2023/01/21 05:47:35;;;;;;;156.48;147.00;;;3.60;99.90;;;;;;5053495;28;20446;-56
2023/01/21 05:50:00;;;;;;;165.67;156.03;;;3.50;99.90;;;;;;5052001;28;20382;-57
2023/01/21 05:52:26;;;;;;;175.77;165.63;;;3.60;99.90;;;;;;5052592;28;20397;-59
2023/01/21 05:54:51;;;;;;;197.75;186.52;;;3.60;99.90;;;;;;5052781;28;20424;-59
2023/01/21 05:57:17;;;;;;;178.10;167.73;;;3.60;99.90;;;;;;5052990;28;20708;-57
2023/01/21 05:59:42;;;;;;;196.80;185.43;;;3.60;99.90;;;;;;5053826;28;20392;-59
2023/01/21 06:02:09;;;;;;;204.63;192.85;;;3.60;99.90;;;;;;5053545;28;20407;-59
2023/01/21 06:04:34;;;;;;;224.30;211.77;;;3.50;99.90;;;;;;5052731;28;20399;-59
2023/01/21 06:07:00;;;;;;;233.17;220.33;;;3.60;99.90;;;;;;5051624;28;20385;-60
2023/01/21 06:09:25;;;;;;;245.50;231.85;;;3.60;99.90;;;;;;5052945;28;20399;-58
2023/01/21 06:11:51;;;;;;;226.68;213.82;;;3.60;99.90;;;;;;5052058;28;20390;-59
2023/01/21 06:14:16;;;;;;;231.10;218.20;;;3.60;99.90;;;;;;5049186;28;20454;-57
2023/01/21 06:16:42;;;;;;;222.50;209.97;;;3.60;99.90;;;;;;5048582;28;20420;-59
2023/01/21 06:19:07;;;;;;;226.32;213.65;;;3.60;99.90;;;;;;5048098;28;20435;-56
2023/01/21 06:21:33;;;;;;;230.57;217.63;;;3.60;99.90;;;;;;5050886;28;20828;-59
2023/01/21 06:23:59;;;;;;;206.47;194.30;;;3.60;99.90;;;;;;5051759;28;20500;-59
2023/01/21 06:26:25;;;;;;;216.65;204.35;;;3.50;99.90;;;;;;5050809;28;20373;-59
2023/01/21 06:28:50;;;;;;;185.43;174.57;;;3.50;99.90;;;;;;5052179;28;20397;-59
2023/01/21 06:31:16;;;;;;;139.20;130.53;;;3.60;99.90;;;;;;5052348;28;20409;-59
2023/01/21 06:33:41;;;;;;;133.73;125.20;;;3.60;99.90;;;;;;5054162;28;20393;-59
2023/01/21 06:36:07;;;;;;;140.63;131.63;;;3.60;99.90;;;;;;5051943;28;20781;-59
2023/01/21 06:38:34;;;;;;;134.82;126.60;;;3.50;99.90;;;;;;5052809;28;20499;-59
2023/01/21 06:41:01;;;;;;;137.02;128.65;;;3.60;99.90;;;;;;5051719;28;20526;-59
2023/01/21 06:43:27;;;;;;;143.10;134.35;;;3.50;99.90;;;;;;5051264;28;20681;-58
2023/01/21 06:45:53;;;;;;;143.13;134.43;;;3.60;99.90;;;;;;5051932;28;20820;-59
2023/01/21 06:48:19;;;;;;;141.43;132.73;;;3.60;99.90;;;;;;5050880;28;20389;-60
2023/01/21 06:50:45;;;;;;;134.07;126.03;;;3.60;99.90;;;;;;5050689;28;20594;-60
2023/01/21 06:53:10;;;;;;;134.60;126.13;;;3.60;99.90;;;;;;5048533;28;20412;-60
2023/01/21 06:55:36;;;;;;;142.75;134.02;;;3.50;99.90;;;;;;5050370;28;20389;-57
2023/01/21 06:58:01;;;;;;;139.73;131.43;;;3.60;99.90;;;;;;5049167;28;20420;-59
2023/01/21 07:00:27;;;;;;;141.77;133.30;;;3.60;99.90;;;;;;5049895;28;20488;-59
2023/01/21 07:02:56;;;;;;;146.07;137.20;;;3.50;99.90;;;;;;5049997;28;20381;-58
2023/01/21 07:05:22;;;;;;;146.60;137.90;;;3.50;99.90;;;;;;5051883;28;20463;-58
2023/01/21 07:07:47;;;;;;;137.10;128.53;;;3.50;99.90;;;;;;5051834;28;20389;-58
2023/01/21 07:10:13;;;;;;;134.77;126.43;;;3.50;99.90;;;;;;5050147;28;20401;-60
2023/01/21 07:12:39;;;;;;;133.70;125.28;;;3.50;99.90;;;;;;5049393;28;20824;-59
2023/01/21 07:15:05;;;;;;;140.00;131.40;;;3.50;99.90;;;;;;5048896;28;20443;-59
2023/01/21 07:17:31;;;;;;;135.90;127.57;;;3.50;99.90;;;;;;5047855;28;20714;-59
2023/01/21 07:19:57;;;;;;;132.10;124.03;;;3.50;99.90;;;;;;5045058;28;20786;-58
2023/01/21 07:22:23;;;;;;;128.27;120.17;;;3.50;99.90;;;;;;5045342;28;20377;-59
2023/01/21 07:24:48;;;;;;;125.30;117.37;;;3.40;99.90;;;;;;5046054;28;20397;-60
2023/01/21 07:27:14;;;;;;;129.40;121.60;;;3.40;99.90;;;;;;5048100;28;20664;-59
2023/01/21 07:29:39;;;;;;;129.48;121.22;;;3.50;99.90;;;;;;5045579;28;20385;-59
2023/01/21 07:32:05;;;;;;;125.60;117.75;;;3.50;99.90;;;;;;5045370;28;20461;-59
2023/01/21 07:34:30;;;;;;;133.10;124.93;;;3.50;99.90;;;;;;5045410;28;20679;-59
2023/01/21 07:36:56;;;;;;;125.93;118.07;;;3.50;99.90;;;;;;5041691;28;20377;-58
2023/01/21 07:39:21;;;;;;;125.25;117.43;;;3.50;99.90;;;;;;5042753;28;20666;-59
2023/01/21 07:41:47;;;;;;;125.60;117.80;;;3.50;99.90;;;;;;5044489;28;20386;-59
2023/01/21 07:44:12;;;;;;;127.77;119.83;;;3.50;99.90;;;;;;5042425;28;20526;-58
2023/01/21 07:46:38;;;;;;;127.50;119.47;;;3.50;99.90;;;;;;5041797;28;20486;-57
2023/01/21 07:49:04;;;;;;;128.80;120.72;;;3.50;99.90;;;;;;5045232;28;20432;-60
2023/01/21 07:51:29;;;;;;;132.30;124.27;;;3.40;99.90;;;;;;5045294;28;20381;-59
2023/01/21 07:53:58;;;;;;;125.53;117.73;;;3.40;99.90;;;;;;5043058;28;20710;-60
2023/01/21 07:56:25;;;;;;;133.65;125.53;;;3.40;99.90;;;;;;5044012;28;21139;-59
2023/01/21 07:58:51;;;;;;;131.20;123.10;;;3.40;99.90;;;;;;5041495;28;20401;-57
2023/01/21 08:01:16;;;;;;;130.13;122.03;;;3.40;99.90;;;;;;5042551;28;20541;-59
2023/01/21 08:03:42;;;;;;;131.27;123.07;;;3.40;99.90;;;;;;5045136;28;20416;-58
2023/01/21 08:06:08;;;;;;;126.15;118.43;;;3.40;99.90;;;;;;5044580;28;20473;-59
2023/01/21 08:08:33;;;;;;;131.93;123.78;;;3.50;99.90;;;;;;5046338;28;20393;-59
2023/01/21 08:10:59;;;;;;;132.82;124.53;;;3.50;99.90;;;;;;5046310;28;20388;-59
2023/01/21 08:13:25;;;;;;;134.93;126.32;;;3.40;99.90;;;;;;5045190;28;20389;-59
2023/01/21 08:15:52;;;;;;;132.73;124.43;;;3.40;99.90;;;;;;5046489;28;20397;-59
2023/01/21 08:18:18;;;;;;;130.15;122.05;;;3.50;99.90;;;;;;5045773;28;20408;-59
2023/01/21 08:20:44;;;;;;;126.80;119.00;;;3.50;99.90;;;;;;5044653;28;20423;-59
2023/01/21 08:23:10;;;;;;;130.67;122.57;;;3.50;99.90;;;;;;5047229;28;20397;-57
2023/01/21 08:25:36;;;;;;;128.17;120.30;;;3.50;99.90;;;;;;5044886;28;20653;-59
2023/01/21 08:28:02;;;;;;;132.80;124.78;;;3.50;99.90;;;;;;5044753;28;20492;-58
2023/01/21 08:30:27;;;;;;;130.18;121.95;;;3.50;99.90;;;;;;5046538;28;20868;-58
2023/01/21 08:32:53;;;;;;;135.60;127.00;;;3.50;99.90;;;;;;5041797;28;20401;-59
2023/01/21 08:35:18;;;;;;;135.03;126.93;;;3.50;99.90;;;;;;5045523;28;21172;-60
2023/01/21 08:37:44;;;;;;;132.05;123.90;;;3.50;99.90;;;;;;5043959;28;20417;-58
2023/01/21 08:40:10;;;;;;;132.83;124.73;;;3.50;99.90;;;;;;5042339;28;20481;-59
2023/01/21 08:42:36;;;;;;;136.45;128.00;;;3.50;99.90;;;;;;5038649;28;20452;-57
2023/01/21 08:45:01;;;;;;;135.20;127.13;;;3.60;99.90;;;;;;5039359;28;20496;-58
2023/01/21 08:47:27;;;;;;;128.32;120.65;;;3.60;99.90;;;;;;5038381;28;20429;-56
2023/01/21 08:49:53;;;;;;;130.30;122.43;;;3.60;99.90;;;;;;5038356;28;20404;-59
2023/01/21 08:52:20;;;;;;;130.32;122.28;;;3.70;99.90;;;;;;5038292;28;21363;-59
2023/01/21 08:54:46;;;;;;;127.72;120.03;;;3.60;99.90;;;;;;5040807;28;20488;-59
2023/01/21 08:57:12;;;;;;;131.07;123.18;;;3.70;99.90;;;;;;5041876;28;20498;-59
2023/01/21 08:59:37;;;;;;;133.13;125.05;;;3.70;99.90;;;;;;5041339;28;20377;-59
2023/01/21 09:02:03;;;;;;;133.20;124.97;;;3.70;99.90;;;;;;5041376;28;20420;-59
2023/01/21 09:04:28;;;;;;;137.93;129.67;;;3.70;99.90;;;;;;5043319;28;20474;-59
2023/01/21 09:06:54;;;;;;;136.30;127.90;;;3.70;99.90;;;;;;5043377;28;20421;-57
2023/01/21 09:09:20;;;;;;;142.68;134.05;;;3.70;99.90;;;;;;5043726;28;20474;-59
2023/01/21 09:11:46;;;;;;;136.65;128.35;;;3.70;99.90;;;;;;5043296;28;20470;-59
2023/01/21 09:14:11;;;;;;;131.65;123.63;;;3.70;99.90;;;;;;5043550;28;20396;-60
2023/01/21 09:16:37;;;;;;;136.70;128.40;;;3.70;99.90;;;;;;5046713;28;20616;-59
2023/01/21 09:19:03;;;;;;;141.03;132.33;;;3.80;99.90;;;;;;5046367;28;20416;-59
2023/01/21 09:21:28;;;;;;;137.83;129.17;;;3.80;99.90;;;;;;5046855;28;20853;-59
2023/01/21 09:23:55;;;;;;;139.67;131.00;;;3.80;99.90;;;;;;5045630;28;20716;-59
2023/01/21 09:26:22;;;;;;;136.77;128.20;;;3.70;99.90;;;;;;5046456;28;20544;-59
2023/01/21 09:28:58;;;;;;;138.57;130.13;;;3.70;99.90;;;;;;5047258;28;20388;-59
2023/01/21 09:31:25;;;;;;;144.15;135.15;;;3.70;99.90;;;;;;5046629;28;20423;-60
2023/01/21 09:33:53;;;;;;;150.02;141.00;;;3.70;99.90;;;;;;5043682;28;20456;-60
2023/01/21 09:36:28;;;;;;;139.20;130.37;;;3.70;99.90;;;;;;5047526;28;21029;-58
2023/01/21 09:38:53;;;;;;;132.25;123.95;;;3.70;99.90;;;;;;5047576;28;20448;-59
2023/01/21 09:41:40;;;;;;;128.27;120.20;;;3.80;99.90;;;;;;5042654;28;20389;-58
2023/01/21 09:44:26;;;;;;;130.93;122.85;;;3.70;99.90;;;;;;5040855;28;20804;-59
2023/01/21 09:47:29;;;;;;;135.30;127.00;;;3.70;99.90;;;;;;5058390;28;20412;-59
2023/01/21 09:49:58;;;;;;;126.80;119.00;;;3.80;99.90;;;;;;5045185;28;20386;-58
2023/01/21 09:52:34;;;;;;;126.53;118.63;;;3.80;99.90;;;;;;5045356;28;20838;-59
2023/01/21 09:55:00;;;;;;;131.75;123.68;;;3.80;99.90;;;;;;5027936;28;20536;-59
2023/01/21 09:58:00;;;;;;;124.53;116.82;;;3.80;99.90;;;;;;5029053;28;20443;-56
2023/01/21 10:00:32;;;;;;;127.65;119.78;;;3.80;99.90;;;;;;5064362;28;20386;-59
2023/01/21 10:03:09;;;;;;;134.32;125.93;;;3.80;99.90;;;;;;5030855;28;20404;-59
2023/01/21 10:06:13;;;;;;;134.43;126.33;;;3.80;99.90;;;;;;5048522;28;20477;-59
2023/01/21 10:08:39;;;;;;;145.77;137.07;;;3.80;99.90;;;;;;5027209;28;20678;-59
2023/01/21 10:11:19;;;;;;;140.55;132.20;;;3.90;99.90;;;;;;5027447;28;20880;-58
2023/01/21 10:13:56;;;;;;;139.73;131.37;;;3.90;99.90;;;;;;5045392;28;20454;-59
2023/01/21 10:16:39;;;;;;;143.55;134.85;;;3.90;99.90;;;;;;5026869;28;20799;-58
2023/01/21 10:19:11;;;;;;;142.57;134.20;;;3.90;99.90;;;;;;5025550;28;20445;-57
2023/01/21 10:21:52;;;;;;;138.80;130.57;;;3.90;99.90;;;;;;5026263;28;20373;-59
2023/01/21 10:24:47;;;;;;;144.23;135.82;;;4.00;99.90;;;;;;5024368;28;20391;-59
2023/01/21 10:27:19;;;;;;;146.13;137.70;;;4.10;99.90;;;;;;5037960;28;20803;-57
2023/01/21 10:29:54;;;;;;;168.40;158.63;;;4.10;99.90;;;;;;5024778;28;20528;-58
2023/01/21 10:32:24;;;;;;;192.02;181.23;;;4.10;99.90;;;;;;5024071;28;20480;-59
2023/01/21 10:34:52;;;;;;;190.10;179.52;;;4.10;99.90;;;;;;5022534;28;20381;-59
2023/01/21 10:37:44;;;;;;;195.80;184.85;;;4.10;99.90;;;;;;5020312;28;20401;-58
2023/01/21 10:40:44;;;;;;;199.20;188.43;;;4.10;99.90;;;;;;5020451;28;20901;-59
2023/01/21 10:43:26;;;;;;;206.82;195.27;;;4.20;99.90;;;;;;5030527;28;20381;-59
2023/01/21 10:46:19;;;;;;;199.70;188.57;;;4.30;99.90;;;;;;5048102;28;20504;-59
2023/01/21 10:49:15;;;;;;;156.30;147.15;;;4.30;99.90;;;;;;5049309;28;20421;-58
2023/01/21 10:51:48;;;;;;;150.13;141.63;;;4.30;99.90;;;;;;5036206;28;20939;-58
2023/01/21 10:54:35;;;;;;;145.43;137.17;;;4.30;99.90;;;;;;5049740;28;20438;-59
2023/01/21 10:57:19;;;;;;;146.65;138.52;;;4.40;99.90;;;;;;5051574;28;20377;-56
2023/01/21 10:59:46;;;;;;;144.27;136.13;;;4.40;99.90;;;;;;5051521;28;20378;-59
2023/01/21 11:02:26;;;;;;;153.23;144.65;;;4.50;99.90;;;;;;5049335;28;20401;-58
2023/01/21 11:04:53;;;;;;;163.33;154.27;;;4.50;99.90;;;;;;5046495;28;20490;-58
2023/01/21 11:07:20;;;;;;;166.15;156.88;;;4.50;99.90;;;;;;5047075;28;20484;-59
2023/01/21 11:09:47;;;;;;;177.18;167.18;;;4.50;99.90;;;;;;5047294;28;20400;-58
2023/01/21 11:12:21;;;;;;;202.38;191.48;;;4.50;99.90;;;;;;5045442;28;20396;-59
2023/01/21 11:14:57;;;;;;;218.50;206.65;;;4.50;99.90;;;;;;5046168;28;20393;-58
2023/01/21 11:17:36;;;;;;;214.32;202.80;;;4.50;99.90;;;;;;5043570;28;20519;-58
2023/01/21 11:20:06;;;;;;;229.48;217.45;;;4.60;99.90;;;;;;5046397;28;20382;-59
2023/01/21 11:22:32;;;;;;;239.65;227.23;;;4.60;99.90;;;;;;5046216;28;20993;-59
2023/01/21 11:24:59;;;;;;;267.77;254.07;;;4.60;99.90;;;;;;5045616;28;20381;-57
2023/01/21 11:27:32;;;;;;;298.67;283.30;;;4.70;99.90;;;;;;5047520;28;20405;-58
2023/01/21 11:29:58;;;;;;;297.30;282.02;;;4.70;99.90;;;;;;5048538;28;20400;-59
2023/01/21 11:32:26;;;;;;;283.98;269.25;;;4.70;99.90;;;;;;5048432;28;20466;-59
2023/01/21 11:35:00;;;;;;;275.97;261.70;;;4.70;99.90;;;;;;5049589;28;20397;-60
2023/01/21 11:37:27;;;;;;;227.90;216.00;;;4.70;99.90;;;;;;5050485;28;20709;-60
2023/01/21 11:40:06;;;;;;;218.73;207.50;;;4.70;99.90;;;;;;5051603;28;20378;-60
2023/01/21 11:42:31;;;;;;;219.50;208.30;;;4.70;99.90;;;;;;5048805;28;20381;-54
2023/01/21 11:45:04;;;;;;;272.17;258.47;;;4.70;99.90;;;;;;5051363;28;20409;-57
2023/01/21 11:47:48;;;;;;;259.20;245.90;;;4.70;99.90;;;;;;5052754;28;20921;-56
2023/01/21 11:50:21;;;;;;;281.20;267.08;;;4.70;99.90;;;;;;5052435;28;20480;-60
2023/01/21 11:53:10;;;;;;;274.02;260.45;;;4.80;99.90;;;;;;5047375;28;20393;-60
2023/01/21 11:55:47;;;;;;;254.70;241.87;;;4.80;99.90;;;;;;5046744;28;20400;-60
2023/01/21 11:58:17;;;;;;;212.37;201.53;;;4.90;99.90;;;;;;5049516;28;20408;-61
2023/01/21 12:00:47;;;;;;;219.03;207.77;;;4.90;99.90;;;;;;5049207;28;21010;-59
2023/01/21 12:03:17;;;;;;;216.52;205.32;;;4.90;99.90;;;;;;5047538;28;20547;-60
2023/01/21 12:05:47;;;;;;;207.00;196.20;;;5.00;99.90;;;;;;5048876;28;20373;-60
2023/01/21 12:08:22;;;;;;;216.45;205.52;;;5.00;99.90;;;;;;5043816;28;20583;-59
2023/01/21 12:10:49;;;;;;;236.25;224.27;;;5.10;99.90;;;;;;5040542;28;20384;-60
2023/01/21 12:13:20;;;;;;;234.57;222.70;;;5.10;99.90;;;;;;5045364;28;20829;-58
2023/01/21 12:16:07;;;;;;;240.00;227.88;;;5.10;99.90;;;;;;5047612;28;21061;-60
2023/01/21 12:19:03;;;;;;;255.45;242.80;;;5.10;99.90;;;;;;5044316;28;20409;-60
2023/01/21 12:21:50;;;;;;;260.20;247.38;;;5.10;99.90;;;;;;5043900;28;20400;-60
2023/01/21 12:24:50;;;;;;;267.23;253.95;;;5.20;99.90;;;;;;5045286;28;20373;-60
2023/01/21 12:28:16;;;;;;;269.17;255.73;;;5.20;99.90;;;;;;5046148;28;20389;-60
2023/01/21 12:30:54;;;;;;;252.52;239.82;;;5.30;99.90;;;;;;5042724;28;20397;-58
2023/01/21 12:33:31;;;;;;;259.00;246.00;;;5.20;99.90;;;;;;5046704;28;20432;-58
2023/01/21 12:36:03;;;;;;;277.33;263.52;;;5.20;99.90;;;;;;5045969;28;20389;-58
2023/01/21 12:38:39;;;;;;;284.73;270.67;;;5.40;99.90;;;;;;5047267;28;20454;-58
2023/01/21 12:41:13;;;;;;;277.02;263.15;;;5.70;99.90;;;;;;5047991;28;20381;-57
2023/01/21 12:43:48;;;;;;;261.63;248.55;;;6.10;99.90;;;;;;5050197;28;20382;-58